createdAt,value
2022-10-05T00:00:27.048Z,0
2022-10-05T00:01:27.305Z,0
2022-10-05T00:02:26.558Z,0
2022-10-05T00:03:27.090Z,0
2022-10-05T00:04:27.110Z,0
2022-10-05T00:05:27.473Z,0
2022-10-05T00:06:27.147Z,0
2022-10-05T00:07:27.209Z,0
2022-10-05T00:08:26.927Z,0
2022-10-05T00:09:27.196Z,0
2022-10-05T00:10:26.959Z,0
2022-10-05T00:11:27.265Z,0
2022-10-05T00:12:27.262Z,0
2022-10-05T00:13:27.057Z,0
2022-10-05T00:14:27.291Z,0
2022-10-05T00:15:26.792Z,0
2022-10-05T00:16:27.609Z,0
2022-10-05T00:17:28.408Z,0
2022-10-05T00:18:27.354Z,0
2022-10-05T00:19:27.388Z,0
2022-10-05T00:20:27.152Z,0
2022-10-05T00:21:27.420Z,0
2022-10-05T00:22:27.439Z,0
2022-10-05T00:23:27.249Z,0
2022-10-05T00:24:26.957Z,0
2022-10-05T00:25:27.257Z,0
2022-10-05T00:26:27.250Z,0
2022-10-05T00:27:27.528Z,0
2022-10-05T00:28:27.771Z,0
2022-10-05T00:29:27.552Z,0
2022-10-05T00:30:27.321Z,0
2022-10-05T00:31:27.706Z,0
2022-10-05T00:32:27.432Z,0
2022-10-05T00:33:27.691Z,0
2022-10-05T00:34:26.888Z,0
2022-10-05T00:35:27.683Z,0
2022-10-05T00:36:27.433Z,0
2022-10-05T00:37:27.455Z,0
2022-10-05T00:38:27.470Z,0
2022-10-05T00:39:27.625Z,0
2022-10-05T00:40:27.252Z,0
2022-10-05T00:41:27.533Z,0
2022-10-05T00:42:27.633Z,0
2022-10-05T00:43:27.830Z,0
2022-10-05T00:44:27.602Z,0
2022-10-05T00:45:28.064Z,0
2022-10-05T00:46:27.859Z,0
2022-10-05T00:47:27.397Z,0
2022-10-05T00:48:27.651Z,0
2022-10-05T00:49:27.985Z,0
2022-10-05T00:50:27.946Z,0
2022-10-05T00:51:27.981Z,0
2022-10-05T00:52:28.007Z,0
2022-10-05T00:53:27.762Z,0
2022-10-05T00:54:28.024Z,0
2022-10-05T00:55:27.861Z,0
2022-10-05T00:56:27.838Z,0
2022-10-05T00:57:27.812Z,0
2022-10-05T00:58:28.108Z,0
2022-10-05T00:59:28.162Z,0
2022-10-05T01:00:27.622Z,0
2022-10-05T01:01:28.597Z,0
2022-10-05T01:02:28.717Z,0
2022-10-05T01:03:28.195Z,0
2022-10-05T01:04:28.222Z,0
2022-10-05T01:05:28.282Z,0
2022-10-05T01:06:27.998Z,0
2022-10-05T01:07:28.008Z,0
2022-10-05T01:08:28.289Z,0
2022-10-05T01:09:28.295Z,0
2022-10-05T01:10:27.817Z,0
2022-10-05T01:11:28.393Z,0
2022-10-05T01:12:28.357Z,0
2022-10-05T01:13:28.129Z,0
2022-10-05T01:14:28.414Z,0
2022-10-05T01:15:28.425Z,0
2022-10-05T01:16:28.714Z,0
2022-10-05T01:17:28.448Z,0
2022-10-05T01:18:27.961Z,0
2022-10-05T01:19:28.493Z,0
2022-10-05T01:20:28.505Z,0
2022-10-05T01:21:28.572Z,0
2022-10-05T01:22:28.292Z,0
2022-10-05T01:23:28.292Z,0
2022-10-05T01:24:28.333Z,0
2022-10-05T01:25:28.589Z,0
2022-10-05T01:26:28.110Z,0
2022-10-05T01:27:28.689Z,0
2022-10-05T01:28:28.797Z,0
2022-10-05T01:29:28.685Z,0
2022-10-05T01:30:28.707Z,0
2022-10-05T01:31:28.720Z,0
2022-10-05T01:32:28.227Z,0
2022-10-05T01:33:28.760Z,0
2022-10-05T01:34:28.262Z,0
2022-10-05T01:35:28.794Z,0
2022-10-05T01:36:28.550Z,0
2022-10-05T01:37:28.874Z,0
2022-10-05T01:38:28.068Z,0
2022-10-05T01:39:28.872Z,0
2022-10-05T01:40:28.384Z,0
2022-10-05T01:41:28.640Z,0
2022-10-05T01:42:28.658Z,0
2022-10-05T01:43:28.987Z,0
2022-10-05T01:44:28.443Z,0
2022-10-05T01:45:29.155Z,0
2022-10-05T01:46:28.844Z,0
2022-10-05T01:47:28.749Z,0
2022-10-05T01:48:28.767Z,0
2022-10-05T01:49:28.783Z,0
2022-10-05T01:50:28.806Z,0
2022-10-05T01:51:28.599Z,0
2022-10-05T01:52:28.842Z,0
2022-10-05T01:53:29.585Z,0
2022-10-05T01:54:28.879Z,0
2022-10-05T01:55:28.391Z,0
2022-10-05T01:56:28.663Z,0
2022-10-05T01:57:29.200Z,0
2022-10-05T01:58:28.700Z,0
2022-10-05T01:59:29.234Z,0
2022-10-05T02:00:29.013Z,0
2022-10-05T02:01:29.424Z,0
2022-10-05T02:02:29.128Z,0
2022-10-05T02:03:29.323Z,0
2022-10-05T02:05:07.642Z,0
2022-10-05T02:05:28.841Z,0
2022-10-05T02:06:29.409Z,0
2022-10-05T02:07:29.128Z,0
2022-10-05T02:08:29.147Z,0
2022-10-05T02:09:29.484Z,0
2022-10-05T02:10:29.185Z,0
2022-10-05T02:11:29.221Z,0
2022-10-05T02:12:28.762Z,0
2022-10-05T02:13:29.495Z,0
2022-10-05T02:14:29.284Z,0
2022-10-05T02:15:29.375Z,0
2022-10-05T02:16:29.363Z,0
2022-10-05T02:17:29.580Z,0
2022-10-05T02:18:29.587Z,0
2022-10-05T02:19:29.613Z,0
2022-10-05T02:20:28.864Z,0
2022-10-05T02:21:29.386Z,0
2022-10-05T02:22:29.141Z,0
2022-10-05T02:23:29.795Z,0
2022-10-05T02:24:29.765Z,0
2022-10-05T02:25:29.765Z,0
2022-10-05T02:26:29.479Z,0
2022-10-05T02:27:29.758Z,0
2022-10-05T02:28:29.869Z,0
2022-10-05T02:29:29.791Z,0
2022-10-05T02:30:29.804Z,0
2022-10-05T02:31:29.926Z,0
2022-10-05T02:32:29.658Z,0
2022-10-05T02:33:29.353Z,0
2022-10-05T02:34:29.920Z,0
2022-10-05T02:35:29.383Z,0
2022-10-05T02:36:29.913Z,0
2022-10-05T02:37:29.168Z,0
2022-10-05T02:38:29.710Z,0
2022-10-05T02:39:29.981Z,0
2022-10-05T02:40:30.020Z,0
2022-10-05T02:41:30.167Z,0
2022-10-05T02:42:29.775Z,0
2022-10-05T02:43:29.803Z,0
2022-10-05T02:44:29.815Z,0
2022-10-05T02:45:29.863Z,0
2022-10-05T02:46:29.981Z,0
2022-10-05T02:47:29.909Z,0
2022-10-05T02:48:30.158Z,0
2022-10-05T02:49:29.916Z,0
2022-10-05T02:50:30.169Z,0
2022-10-05T02:51:29.956Z,0
2022-10-05T02:52:29.977Z,0
2022-10-05T02:53:30.407Z,0
2022-10-05T02:54:30.025Z,0
2022-10-05T02:55:30.017Z,0
2022-10-05T02:56:30.303Z,0
2022-10-05T02:57:30.129Z,0
2022-10-05T02:58:29.807Z,0
2022-10-05T02:59:30.682Z,0
2022-10-05T03:00:30.118Z,0
2022-10-05T03:01:30.746Z,0
2022-10-05T03:02:30.774Z,0
2022-10-05T03:03:30.205Z,0
2022-10-05T03:04:30.462Z,0
2022-10-05T03:05:30.192Z,0
2022-10-05T03:06:29.704Z,0
2022-10-05T03:07:30.230Z,0
2022-10-05T03:08:30.246Z,0
2022-10-05T03:09:30.527Z,0
2022-10-05T03:10:30.286Z,0
2022-10-05T03:11:30.561Z,0
2022-10-05T03:12:30.413Z,0
2022-10-05T03:13:30.389Z,0
2022-10-05T03:14:29.869Z,0
2022-10-05T03:15:30.380Z,0
2022-10-05T03:16:31.212Z,0
2022-10-05T03:17:30.418Z,0
2022-10-05T03:18:35.639Z,0
2022-10-05T03:19:30.711Z,0
2022-10-05T03:20:30.474Z,0
2022-10-05T03:21:30.491Z,0
2022-10-05T03:22:30.517Z,0
2022-10-05T03:23:30.264Z,0
2022-10-05T03:24:30.306Z,0
2022-10-05T03:25:30.562Z,0
2022-10-05T03:26:30.851Z,0
2022-10-05T03:27:30.600Z,0
2022-10-05T03:28:31.351Z,0
2022-10-05T03:29:30.691Z,0
2022-10-05T03:30:30.653Z,0
2022-10-05T03:31:30.971Z,0
2022-10-05T03:32:30.434Z,0
2022-10-05T03:33:30.970Z,0
2022-10-05T03:34:30.966Z,0
2022-10-05T03:35:30.515Z,0
2022-10-05T03:36:30.765Z,0
2022-10-05T03:37:31.038Z,0
2022-10-05T03:38:31.064Z,0
2022-10-05T03:39:30.318Z,0
2022-10-05T03:40:30.588Z,0
2022-10-05T03:41:30.868Z,0
2022-10-05T03:42:30.888Z,0
2022-10-05T03:43:30.646Z,0
2022-10-05T03:44:31.181Z,0
2022-10-05T03:45:30.979Z,0
2022-10-05T03:46:31.197Z,0
2022-10-05T03:47:30.706Z,0
2022-10-05T03:48:31.236Z,0
2022-10-05T03:49:30.995Z,0
2022-10-05T03:50:31.071Z,0
2022-10-05T03:51:31.048Z,0
2022-10-05T03:52:31.052Z,0
2022-10-05T03:53:31.339Z,0
2022-10-05T03:54:31.089Z,0
2022-10-05T03:55:31.376Z,0
2022-10-05T03:56:31.386Z,0
2022-10-05T03:57:31.167Z,0
2022-10-05T03:58:31.168Z,0
2022-10-05T03:59:37.527Z,0
2022-10-05T04:00:30.957Z,0
2022-10-05T04:01:31.807Z,0
2022-10-05T04:02:31.873Z,0
2022-10-05T04:03:31.266Z,0
2022-10-05T04:04:31.550Z,0
2022-10-05T04:05:31.048Z,0
2022-10-05T04:06:31.420Z,0
2022-10-05T04:07:31.677Z,0
2022-10-05T04:08:31.608Z,0
2022-10-05T04:09:31.368Z,0
2022-10-05T04:10:31.379Z,0
2022-10-05T04:11:31.412Z,0
2022-10-05T04:12:30.915Z,0
2022-10-05T04:13:31.477Z,0
2022-10-05T04:14:31.712Z,0
2022-10-05T04:15:31.596Z,0
2022-10-05T04:16:31.444Z,0
2022-10-05T04:17:31.825Z,0
2022-10-05T04:18:31.543Z,0
2022-10-05T04:19:31.811Z,0
2022-10-05T04:20:31.315Z,0
2022-10-05T04:21:31.598Z,0
2022-10-05T04:22:31.467Z,0
2022-10-05T04:23:31.624Z,0
2022-10-05T04:24:31.924Z,0
2022-10-05T04:25:31.411Z,0
2022-10-05T04:26:31.934Z,0
2022-10-05T04:27:31.435Z,0
2022-10-05T04:28:37.305Z,0
2022-10-05T04:29:31.732Z,0
2022-10-05T04:30:31.492Z,0
2022-10-05T04:31:32.339Z,0
2022-10-05T04:32:31.865Z,0
2022-10-05T04:33:31.881Z,0
2022-10-05T04:34:31.827Z,0
2022-10-05T04:35:31.593Z,0
2022-10-05T04:36:31.864Z,0
2022-10-05T04:37:31.365Z,0
2022-10-05T04:38:31.962Z,0
2022-10-05T04:39:31.907Z,0
2022-10-05T04:40:31.684Z,0
2022-10-05T04:41:31.454Z,0
2022-10-05T04:42:32.299Z,0
2022-10-05T04:43:32.248Z,0
2022-10-05T04:44:31.762Z,0
2022-10-05T04:45:32.040Z,0
2022-10-05T04:46:32.562Z,0
2022-10-05T04:47:31.541Z,0
2022-10-05T04:48:32.350Z,0
2022-10-05T04:49:32.412Z,0
2022-10-05T04:50:32.131Z,0
2022-10-05T04:51:32.129Z,0
2022-10-05T04:52:32.206Z,0
2022-10-05T04:53:32.167Z,0
2022-10-05T04:54:32.238Z,0
2022-10-05T04:55:32.466Z,0
2022-10-05T04:56:32.229Z,0
2022-10-05T04:57:32.248Z,0
2022-10-05T04:58:32.533Z,0
2022-10-05T04:59:32.280Z,0
2022-10-05T05:00:32.156Z,0
2022-10-05T05:01:32.422Z,0
2022-10-05T05:02:32.593Z,0
2022-10-05T05:03:32.622Z,0
2022-10-05T05:04:32.629Z,0
2022-10-05T05:05:32.694Z,0
2022-10-05T05:06:32.406Z,0
2022-10-05T05:07:32.421Z,0
2022-10-05T05:08:32.448Z,0
2022-10-05T05:09:32.452Z,0
2022-10-05T05:10:32.785Z,0
2022-10-05T05:11:32.517Z,0
2022-10-05T05:12:32.256Z,4
2022-10-05T05:13:32.558Z,4
2022-10-05T05:14:32.816Z,4
2022-10-05T05:15:32.580Z,4
2022-10-05T05:16:32.901Z,4
2022-10-05T05:17:32.373Z,8
2022-10-05T05:18:32.625Z,4
2022-10-05T05:19:32.634Z,8
2022-10-05T05:20:32.912Z,8
2022-10-05T05:21:32.845Z,8
2022-10-05T05:22:32.707Z,12
2022-10-05T05:23:32.714Z,12
2022-10-05T05:24:32.723Z,16
2022-10-05T05:25:33.010Z,16
2022-10-05T05:26:35.573Z,20
2022-10-05T05:27:32.536Z,20
2022-10-05T05:28:33.197Z,20
2022-10-05T05:29:32.702Z,24
2022-10-05T05:30:33.110Z,28
2022-10-05T05:31:33.463Z,28
2022-10-05T05:32:33.143Z,32
2022-10-05T05:33:32.882Z,36
2022-10-05T05:34:32.660Z,40
2022-10-05T05:35:32.948Z,44
2022-10-05T05:36:33.195Z,44
2022-10-05T05:37:33.302Z,52
2022-10-05T05:38:32.992Z,56
2022-10-05T05:39:32.742Z,60
2022-10-05T05:40:33.025Z,64
2022-10-05T05:41:32.779Z,68
2022-10-05T05:42:33.117Z,68
2022-10-05T05:43:33.079Z,76
2022-10-05T05:44:38.871Z,76
2022-10-05T05:45:33.394Z,80
2022-10-05T05:47:09.439Z,88
2022-10-05T05:47:33.242Z,88
2022-10-05T05:48:32.913Z,92
2022-10-05T05:49:33.198Z,100
2022-10-05T05:50:33.224Z,104
2022-10-05T05:51:33.226Z,108
2022-10-05T05:52:32.987Z,112
2022-10-05T05:53:33.332Z,112
2022-10-05T05:54:33.356Z,116
2022-10-05T05:55:37.088Z,120
2022-10-05T05:56:33.066Z,124
2022-10-05T05:57:33.332Z,128
2022-10-05T05:58:33.395Z,136
2022-10-05T05:59:33.107Z,144
2022-10-05T06:00:33.738Z,148
2022-10-05T06:01:47.158Z,152
2022-10-05T06:02:34.099Z,152
2022-10-05T06:03:34.153Z,160
2022-10-05T06:04:33.756Z,164
2022-10-05T06:05:33.486Z,168
2022-10-05T06:06:32.978Z,172
2022-10-05T06:07:37.590Z,180
2022-10-05T06:08:33.537Z,188
2022-10-05T06:09:33.883Z,196
2022-10-05T06:10:33.847Z,200
2022-10-05T06:11:33.579Z,200
2022-10-05T06:12:33.607Z,208
2022-10-05T06:13:33.885Z,208
2022-10-05T06:14:33.718Z,216
2022-10-05T06:15:33.661Z,224
2022-10-05T06:16:33.935Z,232
2022-10-05T06:17:33.953Z,236
2022-10-05T06:18:33.980Z,248
2022-10-05T06:19:33.737Z,252
2022-10-05T06:20:33.511Z,260
2022-10-05T06:21:33.516Z,292
2022-10-05T06:22:33.807Z,344
2022-10-05T06:23:33.798Z,372
2022-10-05T06:24:34.091Z,376
2022-10-05T06:25:33.883Z,376
2022-10-05T06:26:33.612Z,368
2022-10-05T06:27:33.874Z,372
2022-10-05T06:28:34.254Z,352
2022-10-05T06:29:34.457Z,320
2022-10-05T06:30:33.853Z,300
2022-10-05T06:31:34.362Z,292
2022-10-05T06:32:33.984Z,292
2022-10-05T06:33:34.014Z,304
2022-10-05T06:34:34.258Z,328
2022-10-05T06:35:33.799Z,340
2022-10-05T06:36:34.323Z,324
2022-10-05T06:37:34.092Z,332
2022-10-05T06:38:34.083Z,360
2022-10-05T06:39:33.845Z,372
2022-10-05T06:40:34.395Z,392
2022-10-05T06:41:34.633Z,408
2022-10-05T06:42:34.452Z,416
2022-10-05T06:43:34.188Z,428
2022-10-05T06:44:34.191Z,440
2022-10-05T06:45:34.468Z,444
2022-10-05T06:46:34.285Z,452
2022-10-05T06:47:34.499Z,456
2022-10-05T06:48:34.264Z,460
2022-10-05T06:49:34.035Z,468
2022-10-05T06:50:34.309Z,468
2022-10-05T06:51:34.062Z,464
2022-10-05T06:52:34.618Z,472
2022-10-05T06:53:34.611Z,480
2022-10-05T06:54:34.121Z,584
2022-10-05T06:55:34.395Z,568
2022-10-05T06:56:34.674Z,596
2022-10-05T06:57:34.744Z,552
2022-10-05T06:58:34.726Z,684
2022-10-05T06:59:34.210Z,708
2022-10-05T07:00:34.488Z,708
2022-10-05T07:01:34.983Z,708
2022-10-05T07:02:34.864Z,744
2022-10-05T07:03:34.550Z,764
2022-10-05T07:04:39.821Z,792
2022-10-05T07:05:34.865Z,836
2022-10-05T07:06:34.606Z,740
2022-10-05T07:07:34.897Z,740
2022-10-05T07:08:34.651Z,700
2022-10-05T07:09:34.911Z,644
2022-10-05T07:10:35.020Z,664
2022-10-05T07:11:34.967Z,856
2022-10-05T07:12:34.849Z,924
2022-10-05T07:13:34.780Z,960
2022-10-05T07:14:34.751Z,980
2022-10-05T07:15:35.033Z,1160
2022-10-05T07:16:35.316Z,1124
2022-10-05T07:17:34.808Z,1148
2022-10-05T07:18:34.907Z,960
2022-10-05T07:19:34.845Z,1080
2022-10-05T07:20:34.852Z,1032
2022-10-05T07:21:35.148Z,932
2022-10-05T07:22:39.509Z,900
2022-10-05T07:23:34.955Z,988
2022-10-05T07:24:35.217Z,1044
2022-10-05T07:25:34.966Z,1004
2022-10-05T07:26:34.993Z,1072
2022-10-05T07:27:35.001Z,1016
2022-10-05T07:28:35.703Z,972
2022-10-05T07:29:35.160Z,1008
2022-10-05T07:30:35.142Z,1032
2022-10-05T07:31:35.075Z,1008
2022-10-05T07:32:35.086Z,1008
2022-10-05T07:33:35.126Z,1044
2022-10-05T07:34:34.908Z,1024
2022-10-05T07:35:35.400Z,1032
2022-10-05T07:36:35.421Z,1020
2022-10-05T07:37:35.186Z,1036
2022-10-05T07:38:35.199Z,1040
2022-10-05T07:40:10.847Z,1120
2022-10-05T07:40:35.286Z,1116
2022-10-05T07:41:34.996Z,1156
2022-10-05T07:42:38.908Z,1140
2022-10-05T07:44:14.757Z,1156
2022-10-05T07:44:35.308Z,1144
2022-10-05T07:45:35.787Z,1124
2022-10-05T07:46:35.609Z,1192
2022-10-05T07:47:35.388Z,1156
2022-10-05T07:48:35.152Z,1088
2022-10-05T07:49:35.660Z,1200
2022-10-05T07:50:35.253Z,1236
2022-10-05T07:51:35.450Z,1196
2022-10-05T07:52:41.528Z,1432
2022-10-05T07:53:35.232Z,1268
2022-10-05T07:54:35.496Z,1292
2022-10-05T07:55:35.788Z,1224
2022-10-05T07:56:35.300Z,1216
2022-10-05T07:57:35.297Z,1292
2022-10-05T07:58:35.575Z,1292
2022-10-05T07:59:35.619Z,1248
2022-10-05T08:00:35.882Z,1292
2022-10-05T08:01:35.919Z,1192
2022-10-05T08:02:36.383Z,1232
2022-10-05T08:03:35.668Z,1280
2022-10-05T08:04:41.658Z,1252
2022-10-05T08:05:35.967Z,1228
2022-10-05T08:06:35.524Z,1280
2022-10-05T08:07:35.883Z,1300
2022-10-05T08:08:35.835Z,1308
2022-10-05T08:09:36.038Z,1336
2022-10-05T08:10:35.831Z,1308
2022-10-05T08:11:36.071Z,1288
2022-10-05T08:12:36.099Z,1300
2022-10-05T08:13:35.599Z,1220
2022-10-05T08:14:35.874Z,1256
2022-10-05T08:15:36.238Z,1420
2022-10-05T08:16:36.316Z,1484
2022-10-05T08:17:36.300Z,1368
2022-10-05T08:18:35.704Z,1280
2022-10-05T08:19:35.721Z,1332
2022-10-05T08:20:36.233Z,1424
2022-10-05T08:21:36.300Z,1496
2022-10-05T08:22:36.417Z,1560
2022-10-05T08:23:36.062Z,1556
2022-10-05T08:24:36.339Z,1440
2022-10-05T08:25:36.079Z,1452
2022-10-05T08:26:36.364Z,1560
2022-10-05T08:27:35.865Z,1456
2022-10-05T08:28:36.392Z,1508
2022-10-05T08:29:36.625Z,1584
2022-10-05T08:30:35.669Z,1644
2022-10-05T08:31:36.231Z,1668
2022-10-05T08:32:36.061Z,1592
2022-10-05T08:33:36.541Z,1680
2022-10-05T08:34:36.296Z,1668
2022-10-05T08:35:36.020Z,1588
2022-10-05T08:36:36.039Z,1628
2022-10-05T08:37:36.574Z,1580
2022-10-05T08:38:36.387Z,1600
2022-10-05T08:39:36.093Z,1636
2022-10-05T08:40:35.855Z,1568
2022-10-05T08:41:36.145Z,1624
2022-10-05T08:42:36.396Z,1648
2022-10-05T08:43:41.975Z,1696
2022-10-05T08:44:36.182Z,1660
2022-10-05T08:45:36.483Z,1632
2022-10-05T08:46:36.558Z,1560
2022-10-05T08:47:36.239Z,1668
2022-10-05T08:48:36.530Z,1632
2022-10-05T08:49:42.149Z,1600
2022-10-05T08:50:36.830Z,1616
2022-10-05T08:51:36.590Z,1564
2022-10-05T08:52:36.592Z,1520
2022-10-05T08:53:36.904Z,1576
2022-10-05T08:54:36.935Z,1524
2022-10-05T08:55:36.417Z,1428
2022-10-05T08:56:36.676Z,1412
2022-10-05T08:57:36.949Z,1460
2022-10-05T08:58:36.712Z,1436
2022-10-05T08:59:36.976Z,1404
2022-10-05T09:00:36.230Z,1504
2022-10-05T09:01:37.071Z,1520
2022-10-05T09:02:37.136Z,1480
2022-10-05T09:03:41.567Z,1348
2022-10-05T09:04:37.067Z,1336
2022-10-05T09:05:36.952Z,1340
2022-10-05T09:06:37.139Z,1376
2022-10-05T09:07:38.049Z,1384
2022-10-05T09:08:36.900Z,1328
2022-10-05T09:09:36.416Z,1200
2022-10-05T09:10:36.982Z,1248
2022-10-05T09:11:36.964Z,1200
2022-10-05T09:12:36.977Z,1216
2022-10-05T09:13:37.241Z,1160
2022-10-05T09:14:37.288Z,1124
2022-10-05T09:15:37.187Z,1188
2022-10-05T09:16:37.052Z,1196
2022-10-05T09:17:42.011Z,1188
2022-10-05T09:18:37.104Z,1192
2022-10-05T09:19:36.869Z,1120
2022-10-05T09:20:36.869Z,1092
2022-10-05T09:21:37.455Z,1108
2022-10-05T09:22:36.906Z,1216
2022-10-05T09:23:37.445Z,1184
2022-10-05T09:24:37.452Z,1216
2022-10-05T09:25:37.488Z,1228
2022-10-05T09:26:37.287Z,1292
2022-10-05T09:27:36.767Z,1340
2022-10-05T09:28:37.778Z,1364
2022-10-05T09:29:37.449Z,1284
2022-10-05T09:30:36.811Z,1376
2022-10-05T09:31:37.555Z,1388
2022-10-05T09:32:37.364Z,1344
2022-10-05T09:33:37.618Z,1360
2022-10-05T09:34:37.390Z,1416
2022-10-05T09:35:37.417Z,1680
2022-10-05T09:36:37.442Z,1592
2022-10-05T09:37:37.761Z,1564
2022-10-05T09:38:37.211Z,1572
2022-10-05T09:39:37.486Z,1472
2022-10-05T09:40:36.984Z,1508
2022-10-05T09:41:37.535Z,1584
2022-10-05T09:42:37.918Z,1572
2022-10-05T09:43:37.838Z,1488
2022-10-05T09:44:37.851Z,1216
2022-10-05T09:45:37.398Z,1332
2022-10-05T09:46:38.226Z,1356
2022-10-05T09:47:37.936Z,1408
2022-10-05T09:48:37.661Z,1424
2022-10-05T09:49:37.668Z,1512
2022-10-05T09:50:37.435Z,1460
2022-10-05T09:51:37.726Z,1508
2022-10-05T09:52:37.747Z,1276
2022-10-05T09:53:38.074Z,1128
2022-10-05T09:54:38.038Z,1496
2022-10-05T09:55:37.862Z,1484
2022-10-05T09:56:38.068Z,1520
2022-10-05T09:57:37.571Z,1532
2022-10-05T09:58:38.247Z,1544
2022-10-05T09:59:37.862Z,1652
2022-10-05T10:00:38.142Z,1324
2022-10-05T10:01:42.101Z,1280
2022-10-05T10:02:38.850Z,1320
2022-10-05T10:03:37.883Z,1348
2022-10-05T10:04:38.226Z,1348
2022-10-05T10:05:38.250Z,1380
2022-10-05T10:06:37.998Z,1260
2022-10-05T10:07:38.058Z,1444
2022-10-05T10:08:38.034Z,1356
2022-10-05T10:09:43.667Z,1440
2022-10-05T10:10:38.075Z,1452
2022-10-05T10:11:37.835Z,1484
2022-10-05T10:12:38.118Z,1384
2022-10-05T10:13:37.891Z,1272
2022-10-05T10:14:38.199Z,1316
2022-10-05T10:15:38.453Z,1564
2022-10-05T10:16:38.481Z,1492
2022-10-05T10:17:38.459Z,1468
2022-10-05T10:18:38.487Z,1388
2022-10-05T10:19:38.511Z,1480
2022-10-05T10:20:38.535Z,1480
2022-10-05T10:21:38.544Z,1332
2022-10-05T10:22:43.463Z,1280
2022-10-05T10:23:38.087Z,1332
2022-10-05T10:24:38.354Z,1472
2022-10-05T10:25:38.700Z,1324
2022-10-05T10:26:38.381Z,1524
2022-10-05T10:27:38.408Z,1968
2022-10-05T10:28:39.106Z,1636
2022-10-05T10:29:38.250Z,1540
2022-10-05T10:30:42.994Z,1436
2022-10-05T10:31:38.617Z,1864
2022-10-05T10:32:38.760Z,2324
2022-10-05T10:33:38.521Z,2356
2022-10-05T10:34:38.280Z,2368
2022-10-05T10:35:38.787Z,2364
2022-10-05T10:36:38.339Z,2384
2022-10-05T10:37:38.898Z,2388
2022-10-05T10:38:38.877Z,2416
2022-10-05T10:39:38.646Z,2436
2022-10-05T10:40:38.647Z,2408
2022-10-05T10:41:38.976Z,2444
2022-10-05T10:42:38.693Z,2348
2022-10-05T10:43:38.458Z,2400
2022-10-05T10:44:38.476Z,2348
2022-10-05T10:45:38.779Z,2444
2022-10-05T10:46:39.519Z,2304
2022-10-05T10:47:38.567Z,2348
2022-10-05T10:48:38.815Z,2448
2022-10-05T10:49:38.838Z,2492
2022-10-05T10:50:39.097Z,2384
2022-10-05T10:51:38.867Z,2460
2022-10-05T10:52:38.887Z,2456
2022-10-05T10:53:38.919Z,2476
2022-10-05T10:54:39.179Z,2544
2022-10-05T10:55:39.213Z,2576
2022-10-05T10:56:39.229Z,2448
2022-10-05T10:57:39.297Z,2500
2022-10-05T10:58:39.059Z,2556
2022-10-05T10:59:39.019Z,2632
2022-10-05T11:00:39.046Z,2664
2022-10-05T11:01:39.786Z,2572
2022-10-05T11:02:39.735Z,2444
2022-10-05T11:03:39.108Z,2556
2022-10-05T11:04:39.381Z,2620
2022-10-05T11:05:39.423Z,2668
2022-10-05T11:06:39.154Z,2596
2022-10-05T11:07:39.183Z,2564
2022-10-05T11:08:39.199Z,2444
2022-10-05T11:09:38.960Z,2428
2022-10-05T11:10:39.492Z,2440
2022-10-05T11:11:39.276Z,2604
2022-10-05T11:12:41.900Z,2776
2022-10-05T11:13:39.586Z,2792
2022-10-05T11:14:39.587Z,2736
2022-10-05T11:15:39.439Z,2812
2022-10-05T11:16:39.647Z,2760
2022-10-05T11:17:39.115Z,2612
2022-10-05T11:18:39.446Z,2652
2022-10-05T11:20:07.916Z,2696
2022-10-05T11:20:39.184Z,2672
2022-10-05T11:21:39.706Z,2584
2022-10-05T11:22:39.481Z,2680
2022-10-05T11:23:45.341Z,2720
2022-10-05T11:24:39.523Z,2748
2022-10-05T11:25:39.538Z,2668
2022-10-05T11:26:39.325Z,2724
2022-10-05T11:27:39.825Z,2828
2022-10-05T11:28:40.212Z,2684
2022-10-05T11:29:39.739Z,2836
2022-10-05T11:30:39.372Z,2816
2022-10-05T11:31:40.074Z,2840
2022-10-05T11:32:39.933Z,2936
2022-10-05T11:33:39.949Z,2948
2022-10-05T11:34:39.782Z,2788
2022-10-05T11:35:39.469Z,2800
2022-10-05T11:36:39.766Z,2776
2022-10-05T11:37:39.515Z,2956
2022-10-05T11:38:40.051Z,2836
2022-10-05T11:39:40.103Z,2904
2022-10-05T11:40:40.117Z,2820
2022-10-05T11:41:40.113Z,2808
2022-10-05T11:42:40.134Z,2884
2022-10-05T11:43:39.398Z,2664
2022-10-05T11:44:40.212Z,2844
2022-10-05T11:45:39.997Z,3044
2022-10-05T11:46:40.273Z,3008
2022-10-05T11:47:40.221Z,2936
2022-10-05T11:48:40.005Z,2856
2022-10-05T11:49:40.012Z,3096
2022-10-05T11:50:40.113Z,3108
2022-10-05T11:51:40.057Z,3132
2022-10-05T11:52:40.327Z,3308
2022-10-05T11:53:40.095Z,3336
2022-10-05T11:55:20.751Z,2312
2022-10-05T11:55:40.129Z,1904
2022-10-05T11:56:40.179Z,2184
2022-10-05T11:57:40.173Z,1964
2022-10-05T11:58:40.548Z,1820
2022-10-05T11:59:40.205Z,1544
2022-10-05T12:00:39.989Z,1456
2022-10-05T12:01:40.286Z,1324
2022-10-05T12:02:46.345Z,1304
2022-10-05T12:03:40.836Z,1220
2022-10-05T12:04:40.581Z,1196
2022-10-05T12:05:40.607Z,1168
2022-10-05T12:06:40.403Z,1148
2022-10-05T12:07:40.624Z,824
2022-10-05T12:08:40.649Z,1120
2022-10-05T12:09:40.483Z,1168
2022-10-05T12:10:40.427Z,1172
2022-10-05T12:11:40.456Z,1152
2022-10-05T12:12:39.972Z,1132
2022-10-05T12:13:40.501Z,1192
2022-10-05T12:14:40.534Z,884
2022-10-05T12:15:40.966Z,1124
2022-10-05T12:16:40.572Z,796
2022-10-05T12:17:40.965Z,1180
2022-10-05T12:18:40.354Z,1136
2022-10-05T12:19:40.670Z,1144
2022-10-05T12:20:40.891Z,1204
2022-10-05T12:21:40.397Z,1184
2022-10-05T12:22:40.754Z,1156
2022-10-05T12:23:40.964Z,1156
2022-10-05T12:24:40.717Z,1088
2022-10-05T12:25:40.821Z,1160
2022-10-05T12:26:40.768Z,1160
2022-10-05T12:27:40.778Z,1152
2022-10-05T12:28:40.885Z,1148
2022-10-05T12:29:41.171Z,1164
2022-10-05T12:30:41.084Z,1164
2022-10-05T12:31:41.135Z,1176
2022-10-05T12:32:41.151Z,1196
2022-10-05T12:33:41.180Z,1184
2022-10-05T12:34:40.912Z,1180
2022-10-05T12:35:54.894Z,1188
2022-10-05T12:37:09.227Z,1192
2022-10-05T12:37:40.974Z,1200
2022-10-05T12:38:41.332Z,1208
2022-10-05T12:39:41.023Z,1204
2022-10-05T12:40:41.294Z,1196
2022-10-05T12:41:41.877Z,1216
2022-10-05T12:42:47.026Z,1212
2022-10-05T12:43:41.097Z,1204
2022-10-05T12:44:41.381Z,1204
2022-10-05T12:45:41.685Z,1204
2022-10-05T12:46:41.175Z,1204
2022-10-05T12:47:41.171Z,1216
2022-10-05T12:48:41.478Z,1212
2022-10-05T12:49:41.502Z,1216
2022-10-05T12:50:41.548Z,1212
2022-10-05T12:51:41.003Z,1208
2022-10-05T12:52:41.276Z,1208
2022-10-05T12:53:41.351Z,1216
2022-10-05T12:54:41.372Z,1216
2022-10-05T12:55:41.360Z,1212
2022-10-05T12:56:41.349Z,1212
2022-10-05T12:57:41.674Z,1212
2022-10-05T12:58:41.652Z,1212
2022-10-05T12:59:41.417Z,1216
2022-10-05T13:00:41.719Z,1220
2022-10-05T13:01:41.755Z,1228
2022-10-05T13:02:41.223Z,1228
2022-10-05T13:03:41.753Z,1232
2022-10-05T13:04:41.693Z,1236
2022-10-05T13:05:41.604Z,1236
2022-10-05T13:06:41.561Z,1236
2022-10-05T13:07:41.574Z,1236
2022-10-05T13:08:41.877Z,1240
2022-10-05T13:09:41.654Z,1240
2022-10-05T13:10:41.431Z,1240
2022-10-05T13:11:41.922Z,1256
2022-10-05T13:12:41.934Z,1256
2022-10-05T13:13:41.703Z,1256
2022-10-05T13:14:41.978Z,1260
2022-10-05T13:15:42.006Z,1264
2022-10-05T13:16:41.736Z,1268
2022-10-05T13:17:42.031Z,1272
2022-10-05T13:18:41.536Z,1276
2022-10-05T13:19:41.826Z,1276
2022-10-05T13:20:41.867Z,1276
2022-10-05T13:21:43.052Z,1276
2022-10-05T13:22:42.139Z,1280
2022-10-05T13:23:42.158Z,1288
2022-10-05T13:24:41.939Z,1292
2022-10-05T13:25:42.196Z,1292
2022-10-05T13:26:42.267Z,1296
2022-10-05T13:27:41.978Z,1308
2022-10-05T13:28:42.064Z,1312
2022-10-05T13:29:42.383Z,1316
2022-10-05T13:30:42.048Z,1316
2022-10-05T13:31:42.648Z,1316
2022-10-05T13:32:41.834Z,1320
2022-10-05T13:33:41.594Z,1320
2022-10-05T13:34:41.869Z,1328
2022-10-05T13:35:42.407Z,1328
2022-10-05T13:36:42.443Z,1324
2022-10-05T13:37:42.473Z,1328
2022-10-05T13:38:41.951Z,1320
2022-10-05T13:39:41.958Z,1304
2022-10-05T13:40:42.255Z,1276
2022-10-05T13:41:42.006Z,1256
2022-10-05T13:42:42.353Z,1236
2022-10-05T13:43:42.301Z,1216
2022-10-05T13:44:42.599Z,1200
2022-10-05T13:45:42.675Z,1188
2022-10-05T13:46:42.619Z,1180
2022-10-05T13:47:42.398Z,1164
2022-10-05T13:48:42.414Z,1140
2022-10-05T13:49:42.918Z,1112
2022-10-05T13:50:42.470Z,1076
2022-10-05T13:51:42.217Z,1036
2022-10-05T13:52:42.781Z,996
2022-10-05T13:53:42.577Z,956
2022-10-05T13:54:42.679Z,908
2022-10-05T13:55:42.570Z,880